SiktMolnbas
>≥ 10km≥ 10km ≥ 2000ft≥ 2000ft
< 10km< 10km < 2000ft< 2000ft
< 8km< 8km < 1500ft< 1500ft
< 5km< 5km < 1000ft< 1000ft
< 3km< 3km < 500ft< 500ft

Nytt 18 jan 2017:

Nytt 17 jan 2017:

ESNQ (12:50 UTC)

Kiruna flygplats

METAR

ESNQ 221250Z 22015KT CAVOK M00/M08 Q1013=

TAF

SN

ESNQ 221130Z 2212/2221 24020G30KT CAVOK PROB40 2216/2218 2500 -SN VV012 BECMG 2218/2220 20025G40KT 1400 SN VV012=

ESNG (12:50 UTC)

Gällivare (Kavaheden), Lapland Airport

METAR

ESNG 221250Z 23012KT CAVOK 02/M09 Q1015=

TAF

SN

ESNG RRA 221230Z 2213/2221 21010G20KT CAVOK BECMG 2218/2220 1400 SN VV012=

ESPA (12:50 UTC)

Luleå Airport (Kallax)

METAR

ESPA 221250Z 23008KT CAVOK 05/M07 Q1021=

TAF

SN

ESPA 221126Z 2212/2221 20004KT CAVOK BECMG 2215/2218 18012G26KT PROB30 2220/2221 3000 SN BKN015 RMK MIL=

ESNL (12:50 UTC)

Lycksele flygplats

METAR

ESNL 221250Z AUTO 17007KT 130V210 9999 FEW039/// 06/M05 Q1020=

TAF

Ingen TAF hittades.

ESNU (12:50 UTC)

Umeå City Airport

METAR

ESNU 221250Z 18009KT CAVOK 05/M02 Q1023 RWY 14 CLEAR AND DRY 51-100 PCT FCT 0.60=

TAF

ESNU 221130Z 2212/2221 20008KT CAVOK BECMG 2219/2221 19015G30KT=

ESNO (12:50 UTC)

Örnsköldsvik flygplats

METAR

ESNO 221250Z AUTO 18008KT 150V210 9999 NCD 05/M05 Q1022=

TAF

ESNO 220530Z 2206/2210 22004KT CAVOK=

ESNK (12:50 UTC)

Kramfors-Sollefteå flygplats

METAR

ESNK 221250Z AUTO 15012KT 9999 NCD 06/M06 Q1023=

TAF

ESNK 220530Z 2206/2210 22004KT CAVOK=

ESNN (12:50 UTC)

Sundsvall-Härnösands flygplats (Midlanda)

METAR

ESNN 221250Z 14009KT CAVOK 04/M03 Q1024 RWY 16 CLEAR AND DRY 51-100 PCT FCT 0.81=

TAF

ESNN 221130Z 2212/2221 14008KT CAVOK=

ESNZ (12:50 UTC)

Åre Östersund Airport (Frösön)

METAR

ESNZ 221250Z 18015KT CAVOK 04/M07 Q1018=

TAF

ESNZ 221130Z 2212/2221 17010KT CAVOK BECMG 2213/2215 18015G25KT=

ESNS (12:50 UTC)

Skellefteå flygplats

METAR

ESNS 221250Z 21006KT 160V240 CAVOK 06/M06 Q1022=

TAF

ESNS 221130Z 2212/2221 24010KT CAVOK BECMG 2219/2221 19015G27KT=

ESGT (12:50 UTC)

Trollhättan-Vänersborgs flygplats (Malöga flygplats)

METAR

ESGT 221250Z 18011KT 160V220 CAVOK 09/03 Q1029=

TAF

BR

ESGT 221130Z 2212/2220 20010KT CAVOK BECMG 2216/2218 2000 BR BKN003 TEMPO 2218/2220 5000 BKN005=

ESGG (12:50 UTC)

Göteborg-Landvetter flygplats

METAR

ESGG 221250Z 19013KT 9999 SCT018 08/04 Q1029 RWY 21 DAMP 51-100 PCT BA GOOD=

TAF

DZBR

ESGG 221130Z 2212/2312 20010G20KT 9999 BKN009 BECMG 2212/2214 FEW012 BECMG 2214/2216 BKN006 TEMPO 2216/2305 2000 -DZRA BR BKN003 BECMG 2305/2307 27015G25KT NSC=

ESMT (12:50 UTC)

Halmstads flygplats

METAR

ESMT 221250Z 23010KT 9999 SCT012 BKN019 09/05 Q1031=

TAF

BR

ESMT 221110Z 2212/2221 20005KT 9999 SCT015 TEMPO 2212/2219 BKN010 TEMPO 2220/2221 4000 BR BKN008=

ESTA (12:50 UTC)

Ängelholm-Helsingborg flygplats

METAR

ESTA 221250Z 16010KT 9999 BKN015 08/04 Q1032=

TAF

ESTA 221110Z 2212/2221 17008KT 9999 SCT015 TEMPO 2212/2221 BKN008=

ESTL (12:50 UTC)

Ljungbyheds flygplats

METAR

ESTL 221250Z AUTO 18008KT 150V210 9999 OVC013/// 08/05 Q1032=

TAF

Ingen TAF hittades.

ESMS (12:50 UTC)

Malmö Airport

METAR

ESMS 221250Z 16006KT 9999 OVC015 08/04 Q1032=

TAF

BR

ESMS 221113Z 2212/2312 17006KT 9999 BKN015 TEMPO 2212/2224 BKN008 TEMPO 2300/2310 2500 BR BKN003 BECMG 2303/2306 30010KT=

ESMK (12:50 UTC)

Kristianstad Airport

METAR

ESMK 221250Z 16009KT 9999 OVC020 09/06 Q1032=

TAF

ESMK 221110Z 2212/2221 15008KT 9999 SCT015 TEMPO 2212/2218 BKN012 TEMPO 2218/2221 BKN005=

ESDF (12:50 UTC)

Ronneby flygplats

METAR

ESDF 221250Z 16011KT CAVOK 10/03 Q1033=

TAF

BR

ESDF 221125Z 2212/2221 16010KT CAVOK BECMG 2215/2217 BKN009 PROB40 2217/2221 4000 BR BKN003 RMK MIL=

ESMQ (12:50 UTC)

Kalmar Airport

METAR

ESMQ 221250Z 18012KT CAVOK 09/M01 Q1033=

TAF

ESMQ 221130Z 2212/2221 18012KT CAVOK BECMG 2218/2220 BKN012=

ESMX (12:50 UTC)

Växjö, Smaland Airport

METAR

ESMX 221250Z 14009KT 9999 FEW035 12/03 Q1031=

TAF

BR

ESMX 221130Z 2212/2221 18010KT 9999 FEW025 BECMG 2216/2218 BKN012 BECMG 2218/2220 4000 BR BKN004=

ESGJ (12:50 UTC)

Jönköping Airport

METAR

ESGJ 221250Z 19009KT 150V220 CAVOK 12/03 Q1029 RWY 19 51-100 PCT FCT 0.70=

TAF

BR

ESGJ 221130Z 2212/2221 18010KT CAVOK BECMG 2217/2219 BKN012 BECMG 2219/2221 4000 BR BKN004=

ESSA (12:50 UTC)

Stockholm-Arlanda flygplats

METAR

ESSA 221250Z 25010KT CAVOK 08/M06 Q1030 RWY 01L WET OR WATER PATCHES 51-100 PCT BA GOOD RWY 08 WET OR WATER PATCHES 51-100 PCT BA GOOD RWY 01R WET OR WATER PATCHES 51-100 PCT BA GOOD NOSIG=

TAF

ESSA 221130Z 2212/2312 25006KT CAVOK BECMG 2215/2217 19010KT PROB40 2300/2309 BKN009 TEMPO 2220/2307 20015G25KT BECMG 2307/2310 26013KT=

ESSB (12:50 UTC)

Stockholm-Bromma flygplats

METAR

ESSB 221250Z 21008KT 180V240 CAVOK 10/M08 Q1030 RWY 12 CLEAR AND DRY 51-100 PCT BA GOOD=

TAF

ESSB 221130Z 2212/2221 26005KT CAVOK BECMG 2215/2217 19010KT=

ESKN (12:50 UTC)

Stockholm-Skavsta flygplats

METAR

ESKN 221250Z 22009KT 160V250 CAVOK 10/M07 Q1030 RWY 26 CLEAR AND DRY 51-100 PCT BA GOOD=

TAF

ESKN 221130Z 2212/2312 22005KT CAVOK TEMPO 2302/2306 22015G25KT=

ESSP (12:50 UTC)

Norrköping flygplats

METAR

ESSP 221250Z 19008KT CAVOK 11/M06 Q1030 RWY 27 CLEAR AND DRY 51-100 PCT BA GOOD=

TAF

ESSP RRA 221130Z 2212/2221 19007KT CAVOK=

ESSL (12:50 UTC)

Linköping - SAAB Flygplats

METAR

ESSL 221250Z 16007KT 140V210 CAVOK 10/M03 Q1030 RWY 29 CLEAR AND DRY 51-100 PCT BA GOOD=

TAF

ESSL RRA 221130Z 2212/2221 18008G18KT CAVOK=

ESSV (12:50 UTC)

Visby flygplats

METAR

ESSV 221250Z VRB02KT CAVOK 07/M04 Q1033 RWY 03 CLEAR AND DRY 51-100 PCT FCT 0.78=

TAF

ESSV RRA 221130Z 2212/2221 33006KT CAVOK=

ESOW (12:50 UTC)

Stockholm-Västerås flygplats

METAR

ESOW 221250Z 22008KT CAVOK 09/M07 Q1030 RWY 19 CLEAR AND DRY 51-100 PCT BA GOOD=

TAF

ESOW 221130Z 2212/2215 20008KT CAVOK=

ESOE (12:50 UTC)

Örebro flygplats

METAR

ESOE 221250Z 21008KT 170V240 CAVOK 10/M05 Q1029=

TAF

ESOE 221130Z 2212/2221 20008KT CAVOK=

ESOK (12:50 UTC)

Karlstad Airport

METAR

ESOK 221250Z 16011KT CAVOK 08/M02 Q1028=

TAF

ESOK RRA 221130Z 2212/2220 16009KT CAVOK=

ESSD (12:50 UTC)

Borlänge, Dala Airport

METAR

ESSD 221250Z 21009KT CAVOK 08/M07 Q1027=

TAF

ESSD 221130Z 2212/2216 20005KT CAVOK=

ESGR (12:50 UTC)

Skövde flygplats

METAR

ESGR 221250Z AUTO 20011KT 9999 NCD 12/01 Q1028=

TAF

Ingen TAF hittades.

ESIB (12:50 UTC)

Såtenäs

METAR

ESIB 221250Z 22015KT CAVOK 12/04 Q1028=

TAF

DZBR

ESIB 221125Z 2212/2221 20012KT CAVOK BECMG 2217/2219 BKN008 TEMPO 2218/2221 3000 BR DZ BKN003 RMK MIL=

ESNV (12:50 UTC)

Vilhelmina flygplats

METAR

ESNV 221250Z AUTO 17009KT 9999 SCT072/// BKN096/// 03/M04 Q1018=

TAF

Ingen TAF hittades.

ESST (12:50 UTC)

Torsby flygplats (Fryklanda)

METAR

ESST 221250Z AUTO 15012KT 9999 SCT088/// 06/M02 Q1026=

TAF

Ingen TAF hittades.

ESUT (12:50 UTC)

Hemavans flygplats

METAR

ESUT 221250Z AUTO 17011KT 150V220 9999 UP BKN021/// 02/M03 Q1014=

TAF

Ingen TAF hittades.

ESNX (12:50 UTC)

Arvidsjaur flygplats

METAR

ESNX 221250Z 18013KT CAVOK 03/M06 Q1017=

TAF

SN

ESNX 221130Z 2212/2221 23010KT CAVOK BECMG 2217/2219 18015G27KT 1400 SN VV012=

ESIA (12:50 UTC)

Karlsborg

METAR

ESIA 221250Z AUTO 17005KT 140V240 9999 FEW100/// 08/M02 Q1029=

TAF

ESIA 220825Z 2209/2211 VRB02KT CAVOK BECMG 2209/2211 18008KT RMK MIL=

ESUP (12:50 UTC)

Pajala

METAR

ESUP 221250Z AUTO 22010KT 9999 NCD 02/M11 Q1017=

TAF

Ingen TAF hittades.

ESPE (12:50 UTC)

Vidsel

METAR

ESPE 221250Z 20007KT 170V250 CAVOK 04/M06 Q1019=

TAF

SN

ESPE 221127Z 2212/2221 21007G15KT CAVOK BECMG 2218/2221 19008G20KT TEMPO 2218/2221 3000 SN SG BKN025 RMK MIL=

ESCM (12:50 UTC)

Uppsala

METAR

ESCM 221250Z AUTO 22010KT 9999 NCD 09/M05 Q1029=

TAF

Ingen TAF hittades.

ESKM (12:50 UTC)

Mora/Siljan

METAR

ESKM 221250Z AUTO 20009KT 170V230 9999 BKN110/// 07/M09 Q1025=

TAF

Ingen TAF hittades.

EKRN (12:50 UTC)

Bornholm Airport

METAR

EKRN 221250Z AUTO 16004KT 9999 OVC022/// 07/05 Q1033=

TAF

BR

EKRN 221125Z 2212/2221 18010KT 9999 OVC016 TEMPO 2212/2216 BKN013 TEMPO 2216/2221 4000 BR BKN008=

EFIV (12:50 UTC)

Ivalo Airport

METAR

EFIV 221250Z AUTO 24012KT 220V290 CAVOK 02/M08 Q1013=

TAF

Ingen TAF hittades.

EFKT (12:50 UTC)

Kittilä Airport

METAR

EFKT 221250Z 23012KT 210V270 CAVOK 02/M09 Q1015=

TAF

EFKT 221125Z 2212/2221 27006KT CAVOK=

EFRO (12:50 UTC)

Rovaniemi Airport

METAR

EFRO 221250Z 22010KT CAVOK 02/M06 Q1018=

TAF

SNBR

EFRO 221125Z 2212/2312 24006KT CAVOK BECMG 2220/2222 4000 -SN TEMPO 2222/2300 19019G29KT 1200 DRSN VV012 BECMG 2300/2302 BKN008 TEMPO 2302/2306 20017G27KT 1200 DRSN VV004 BECMG 2306/2308 3000 BR OVC003 BECMG 2310/2312 23008KT 9999 NSW OVC008=

EFKE (12:50 UTC)

Kemi-Tornio Airport

METAR

EFKE 221250Z 23009KT CAVOK 02/M07 Q1021=

TAF

EFKE 221125Z 2212/2221 24009KT CAVOK TEMPO 2218/2221 21018G28KT=

EFKS (12:50 UTC)

Kuusamo Airport

METAR

SN

EFKS 221250Z AUTO 31014KT 9999 -SN NCD 00/M07 Q1018=

TAF

EFKS 221125Z 2212/2221 30006KT CAVOK=

EFOU (12:50 UTC)

Oulu Airport

METAR

EFOU 221250Z AUTO 27010KT CAVOK 01/M05 Q1023=

TAF

RA

EFOU 221125Z 2212/2312 29010KT CAVOK BECMG 2214/2216 18010KT BECMG 2222/2224 8000 -SNRA BKN040 TEMPO 2300/2306 19015G25KT 4000 -SNRA BECMG 2306/2308 8000 -RA OVC008 TEMPO 2308/2309 5000 -SNRA TEMPO 2310/2312 9999 BKN012=

EFKI (12:50 UTC)

Kajaani Airport

METAR

EFKI 221250Z AUTO 32011KT 290V350 CAVOK 03/M09 Q1021=

TAF

EFKI 221130Z 2212/2221 32012KT CAVOK BECMG 2216/2218 22005KT=

EFKK (12:50 UTC)

Kokkola-Pietarsaari/Kruunupyy Airport

METAR

EFKK 221250Z AUTO 23007KT 200V270 CAVOK 03/M06 Q1024=

TAF

SN

EFKK 221136Z 2212/2221 25007KT CAVOK BECMG 2216/2218 19010KT TEMPO 2220/2221 7000 -SNRA=

EFVA (12:50 UTC)

Vaasa Airport

METAR

EFVA 221250Z AUTO 26007KT 230V310 CAVOK 04/M04 Q1025=

TAF

RA

EFVA RRA 221141Z 2212/2312 27007KT CAVOK BECMG 2214/2216 21010KT TEMPO 2220/2223 4000 -SNRA BECMG 2304/2306 20015G25KT 6000 -RA BKN012 BECMG 2309/2311 9999 NSW BKN015=

EFKU (12:50 UTC)

Kuopio Airport

METAR

EFKU 221250Z 30021KT 9999 FEW035 03/M07 Q1021=

TAF

EFKU 221130Z 2212/2312 30020KT CAVOK BECMG 2216/2218 24006KT BECMG 2301/2303 18012KT PROB40 TEMPO 2305/2309 15015G28KT=

EFJY (12:50 UTC)

Jyväskylä Airport

METAR

EFJY 221250Z AUTO 33017KT CAVOK 04/M10 Q1023=

TAF

DZ

EFJY 221136Z 2212/2312 31018KT CAVOK BECMG 2214/2216 30008KT BECMG 2300/2302 18010KT BECMG 2307/2309 4000 -DZ BKN009=

EFTP (12:50 UTC)

Tampere-Pirkkala Airport

METAR

EFTP 221250Z 32011KT 280V350 CAVOK 05/M10 Q1026=

TAF

DZ

EFTP 221136Z 2212/2312 31010KT CAVOK BECMG 2215/2217 25005KT BECMG 2221/2223 19012KT BECMG 2306/2308 3000 -DZ BKN006 TEMPO 2308/2312 1800 DZ BKN004=

EFPO (12:50 UTC)

Pori Airport

METAR

EFPO 221250Z AUTO 30009KT CAVOK 04/M05 Q1027=

TAF

EFPO 221136Z 2212/2221 27007KT CAVOK=

EFTU (12:50 UTC)

Turku Airport

METAR

EFTU 221250Z AUTO 29009KT 270V340 CAVOK 06/M05 Q1028=

TAF

DZ

EFTU 221132Z 2212/2312 31010KT CAVOK BECMG 2214/2216 25005KT BECMG 2222/2224 19010KT BECMG 2304/2306 BKN010 TEMPO 2307/2310 4000 -DZRA BKN006 BECMG 2310/2312 CAVOK=

EFHK (12:50 UTC)

Helsinki-Vantaa Airport

METAR

EFHK 221250Z 31021KT CAVOK 06/M10 Q1025 NOSIG=

TAF

EFHK 221132Z 2212/2312 30016KT CAVOK BECMG 2216/2218 26004KT BECMG 2302/2304 20011KT BECMG 2310/2312 BKN009=

EFMA (12:50 UTC)

Mariehamn Airport

METAR

EFMA 221250Z AUTO 26006KT 180V320 CAVOK 08/M07 Q1030=

TAF

EFMA 221132Z 2212/2221 28007KT CAVOK BECMG 2216/2218 21012KT=

EKSB (12:50 UTC)

Sønderborg Airport

METAR

EKSB 221250Z 17004KT 120V210 7000 OVC004 09/08 Q1030=

TAF

BR

EKSB 221201Z 2212/2221 17006KT 6000 BKN004 TEMPO 2212/2221 2000 BR BECMG 2212/2214 BKN008 BECMG 2214/2217 BKN015=

EKSP (12:50 UTC)

Vojens Airport

METAR

BR

EKSP 221250Z 21009KT 4000 BR BKN002 BKN004 08/07 Q1030 BECMG 6000 NSW=

TAF

FG

EKSP 221118Z 2212/2312 20006KT 3000 BR BKN002 BECMG 2212/2213 8000 NSW SCT012 TEMPO 2213/2221 3000 BR BKN004 TEMPO 2221/2307 0100 FG VV001=

EKEB (12:50 UTC)

Esbjerg Airport

METAR

EKEB 221250Z 18009KT 5000 OVC004 07/07 Q1029=

TAF

BR

EKEB RRA 221142Z 2212/2221 18005KT 9999 BKN003 TEMPO 2212/2221 1500 BR SCT003=

EKYT (12:50 UTC)

Aalborg Airport

METAR

EKYT 221250Z AUTO 15006KT 110V200 9999 BKN020/// 11/07 Q1028=

TAF

DZBR

EKYT RRA 221130Z 2212/2312 20010KT 9999 FEW005 SCT200 TEMPO 2212/2305 3000 BR BKN006 PROB40 2218/2305 -DZRA BECMG 2302/2305 27012KT BECMG 2309/2312 28015G28KT=

EKKA (12:50 UTC)

Karup Airport

METAR

EKKA 221250Z AUTO 19009KT 150V210 9999NDV OVC004/// 08/07 Q1029 TEMPO 3000 BR BKN006=

TAF

DZBR

EKKA AAA 221202Z 2212/2312 20010KT 9999 FEW005 SCT200 TEMPO 2212/2218 BKN004 TEMPO 2218/2304 3000 BR BKN004 PROB40 2222/2304 -DZRA BECMG 2302/2305 27008KT BECMG 2309/2312 28015G28KT=

EKBI (12:50 UTC)

Billund Airport

METAR

BR

EKBI 221250Z 19008KT 170V230 3000 BR OVC002 07/07 Q1029=

TAF

BR

EKBI RRA 221132Z 2212/2312 19008KT 2000 BR OVC002 BECMG 2212/2214 6000 NSW BKN005 BECMG 2214/2217 BKN015 BECMG 2217/2220 BKN005 TEMPO 2220/2304 1500 BCFG BR BKN002 BECMG 2304/2306 SCT030=

EKVD (12:50 UTC)

Kolding Airport

METAR

BR

EKVD 221250Z 21009KT 2500 BR BKN003 08/08 Q1030=

TAF

BR

EKVD 221201Z 2212/2217 21008KT 2000 BR BKN002 BECMG 2212/2214 6000 NSW BKN008 BECMG 2214/2217 BKN015=

EKOD (12:50 UTC)

Odense Airport

METAR

FG

EKOD 221250Z 18009KT 8000 BCFG OVC004 07/06 Q1030=

TAF

BR

EKOD 221201Z 2212/2217 18008KT 9999 BKN003 TEMPO 2212/2217 2000 BR BECMG 2212/2214 BKN008 BECMG 2214/2217 BKN015=

EKCH (12:50 UTC)

Copenhagen Airport, Kastrup

METAR

EKCH 221250Z 15009KT 9999 OVC012 07/05 Q1032 TEMPO BKN015=

TAF

BR

EKCH 221111Z 2212/2312 17010KT 9999 SCT008 BKN015 TEMPO 2212/2218 BKN012 TEMPO 2218/2310 3000 BR BKN004 BECMG 2301/2304 27012KT=

EKRK (12:52 UTC)

Copenhagen Airport, Roskilde

METAR

EKRK 221252Z 15009KT 120V190 9999 BKN013 09/06 Q1031=

TAF

BR

EKRK 221114Z 2212/2221 18008KT 9999 BKN015 TEMPO 2212/2217 BKN012 TEMPO 2217/2221 3000 BR BKN004=

ENRY (12:50 UTC)

Moss flygplats, Rygge

METAR

ENRY 221250Z 17014KT 150V210 9999 BKN007 05/03 Q1027=

TAF

RABR

ENRY 221100Z 2212/2312 18015KT 9999 SCT008 BKN040 PROB40 2212/2214 BKN008 BECMG 2214/2216 19018G30KT 4000 BR SCT003 BKN007 TEMPO 2216/2304 1400 -RADZ BR OVC003 BECMG 2303/2305 24015KT CAVOK=

ENGM (12:50 UTC)

Oslo flygplats, Gardermoen

METAR

ENGM 221250Z 18013KT CAVOK 06/M01 Q1024=

TAF

RABR

ENGM 221100Z 2212/2312 18012KT 9999 FEW040 BKN060 BECMG 2216/2218 4000 -RADZ BR BKN008 TEMPO 2218/2304 19015G25KT 2000 -DZRA BR OVC003 BECMG 2304/2306 24012KT CAVOK=

ENTO (12:50 UTC)

Sandefjord flygplats, Torp

METAR

ENTO 221250Z 18016KT 9000 BKN004 05/04 Q1026=

TAF

DZBR

ENTO 221100Z 2212/2312 19015KT 3000 BR OVC003 PROB40 TEMPO 2212/2214 9999 SCT008 TEMPO 2214/2303 19018G30KT 1200 -DZRA BR BECMG 2302/2304 25012KT CAVOK=

ENCN (12:50 UTC)

Kristiansand flygplats, Kjevik

METAR

DZ

ENCN 221250Z 22004KT 1800 -DZ BKN002 OVC006 05/05 Q1026=

TAF

RABR

ENCN AAA 221222Z 2212/2221 19010KT 8000 SCT002 BKN005 TEMPO 2212/2221 1200 -RADZ BR OVC002 PROB30 TEMPO 2216/2221 20015G25KT=

ENZV (12:50 UTC)

Stavanger-Sola flygplats

METAR

DZ

ENZV 221250Z 15017G29KT 9000 -DZ SCT006 BKN010 08/06 Q1021 TEMPO 4000 -RADZ SCT004 BKN008=

TAF

RABR

ENZV 221100Z 2212/2312 16022G32KT 9999 -RA FEW010 BKN018 BECMG 2212/2214 4000 -RADZ OVC010 TEMPO 2214/2222 2000 DZRA BR BKN004 BECMG 2220/2222 26015KT 9999 NSW SCT020 BKN045 BECMG 2308/2311 26022G35KT=

ENHD (12:50 UTC)

Haugesund flygplats, Karmøy

METAR

RABR

ENHD 221250Z 15023G33KT 5000 -RA BR BKN005 07/06 Q1018=

TAF

RABR

ENHD 221100Z 2212/2221 16028G40KT 8000 -RA BKN010 BECMG 2212/2214 4000 -RADZ BR OVC007 TEMPO 2212/2220 1200 RADZ BR OVC003 BECMG 2218/2221 23015KT 9999 NSW FEW015 BKN045=

ENBR (12:50 UTC)

Bergen flygplats, Flesland

METAR

SHRA

ENBR 221250Z 16024G34KT 9999 VCSH FEW008 SCT012 BKN015 08/06 Q1016 TEMPO 4000 -RA BR BKN007 RMK WIND 1200FT 16037G51KT=

TAF

TSSHRABRCB

ENBR 221100Z 2212/2312 16025G38KT 9999 -RA FEW010 BKN020 BECMG 2212/2214 4000 -RA OVC007 TEMPO 2214/2221 1200 RADZ BR BKN003 BECMG 2218/2221 24015KT 9999 NSW SCT020 BKN040 TEMPO 2300/2312 25020G30KT SHRA BKN014CB PROB30 TEMPO 2309/2312 TSGS=

ENBL (12:50 UTC)

Førde flygplats, Bringeland

METAR

RA

ENBL 221250Z 19015G29KT 7000 -RA SCT015 BKN020 06/03 Q1013=

TAF

Ingen TAF hittades.

ENOV (12:50 UTC)

Ørsta-Volda flygplats, Hovden

METAR

DZ

ENOV 221250Z 25015G32KT 200V340 9999 -DZ FEW036 BKN042 11/03 Q1009 RMK WIND THR24 06014KT AT 2175FT 17034G46KT=

TAF

Ingen TAF hittades.

ENML (12:50 UTC)

Molde flygplats, Årø

METAR

ENML 221250Z 21017KT 9999 FEW040 BKN100 14/03 Q1007=

TAF

RA

ENML 221100Z 2212/2221 VRB08KT 9999 FEW030 BKN050 BECMG 2212/2214 26015G25KT PROB30 2218/2221 26025G35KT RA BKN012=

ENKB (12:50 UTC)

Kristiansund flygplats, Kvernberget

METAR

ENKB 221250Z 16007KT 120V210 CAVOK 12/00 Q1006 RMK WIND 745FT 17017KT=

TAF

ENKB 221100Z 2212/2221 14008KT 9999 BKN040 TEMPO 2212/2214 14015G25KT BECMG 2214/2216 23022G35KT=

ENRO (12:50 UTC)

Røros flygplats

METAR

ENRO 221250Z VRB11KT CAVOK 03/M06 Q1016=

TAF

ENRO 221100Z 2212/2219 17015G25KT 9999 FEW030 BKN070 TEMPO 2213/2219 20025G35KT=

ENVA (12:50 UTC)

Trondheim flygplats, Værnes

METAR

ENVA 221250Z 17026G40KT 9999 SCT055 BKN074 08/M05 Q1012 NOSIG RMK WIND 670FT 17038G52KT=

TAF

TSSHRACB

ENVA 221100Z 2212/2312 16018G35KT 9999 FEW040 BKN050 BECMG 2221/2224 24012KT TEMPO 2221/2224 RA BKN014 TEMPO 2223/2308 25020G30KT BECMG 2308/2311 26030G42KT TEMPO 2223/2308 TEMPO 2308/2312 SHRA BKN014CB PROB30 TEMPO 2308/2312 TSGS=

ENOL (12:50 UTC)

Ørland flygplats

METAR

RA

ENOL 221250Z 13024KT 9999 -RA FEW040 SCT070 BKN180 08/M04 Q1008 NOSIG=

TAF

TSRACB

ENOL 221100Z 2212/2312 14017KT 9999 FEW020 BKN050 BECMG 2218/2221 23015KT TEMPO 2218/2221 RA BKN014 BECMG 2223/2302 24025G35KT TEMPO 2302/2306 24035G45KT BECMG 2306/2309 24035G45KT TEMPO 2300/2312 TSRAGS BKN014CB TEMPO 2309/2312 24045G60KT=

ENRM (12:50 UTC)

Rørvik flygplats, Ryum

METAR

ENRM 221250Z 14016G26KT 110V170 9999 FEW020 BKN030 06/M03 Q1010=

TAF

RA

ENRM RRA 221100Z 2212/2221 15015KT 9999 -RA FEW015 BKN030 TEMPO 2212/2221 16018G30KT=

ENBN (12:50 UTC)

Brønnøysund flygplats, Brønnøy

METAR

SHRA

ENBN 221250Z 14021G34KT 100V180 9999 -SHRA BKN045 06/M01 Q1011=

TAF

RA

ENBN AAA 221252Z 2212/2220 16015G25KT 9999 SCT008 BKN015 BECMG 2214/2216 16025G35KT TEMPO 2214/2220 4000 RA FEW006 BKN008=

ENRA (12:50 UTC)

Mo i Rana flygplats, Røssvoll

METAR

SHRA

ENRA 221250Z 14010G22KT 9999 VCSH SCT030 BKN050 04/M02 Q1013=

TAF

ENRA 221100Z 2212/2221 10008KT 9999 SCT015 BKN030 TEMPO 2215/2221 2000 SNRA VV008=

ENBO (12:50 UTC)

Bodö flygplats

METAR

ENBO 221250Z 14014KT 9999 FEW035 BKN075 05/M03 Q1011 NOSIG=

TAF

TSSHRACB

ENBO 221100Z 2212/2312 16012KT 9999 FEW015 BKN030 TEMPO 2215/2223 RA BECMG 2215/2218 22025KT TEMPO 2218/2223 22030G40KT TEMPO 2223/2312 22030G45KT SHRAGS BKN012CB PROB40 TEMPO 2302/2312 TS=

ENSH (12:50 UTC)

Svolvær flygplats, Helle

METAR

ENSH 221250Z 19013KT 9999 BKN036 03/M01 Q1010 RMK WIND 150FT 17014KT=

TAF

SHRASN

ENSH 221100Z 2212/2221 19025KT 9999 FEW020 SCT025 TEMPO 2212/2215 1500 SHRASN VV004 BECMG 2216/2218 2000 RASN VV008=

ENAN (12:50 UTC)

Andøya flygplats

METAR

ENAN 221250Z 19009KT 9999 SCT039 02/M01 Q1010=

TAF

TSSHRACB

ENAN 221100Z 2212/2312 22020KT 9999 FEW015 BKN040 TEMPO 2212/2218 2000 SHSNRAGS VV008 TEMPO 2218/2223 3000 RASN BKN012 TEMPO 2223/2312 23030G40KT 4000 SHRAGS BKN014CB PROB40 TEMPO 2304/2312 TS=

ENEV (12:50 UTC)

Harstad-Narvik flygplats

METAR

ENEV 221250Z 19006KT 9999 BKN043 03/M03 Q1011 RMK WIND 1400FT 19011KT=

TAF

RA

ENEV 221100Z 2212/2221 20012KT 9999 -RASN FEW012 BKN025 TEMPO 2218/2221 17020G30KT 4000 RASN BKN014=

ENDU (12:50 UTC)

Bardufoss flygplats

METAR

ENDU 221250Z 20006KT 150V240 9999 FEW030 BKN050 03/M05 Q1011 NOSIG RMK WIND 1100FT 19017KT WIND 2200FT 20020KT=

TAF

SHRACB

ENDU ERR 221100Z 2212/2312 24008KT 9999 FEW015 BKN030 PROB40 TEMPO 2212/2215 2000 SHSN VV008 TEMPO 2212/2218 22015G25KT TEMPO 2218/2302 22018G28KT RA TEMPO 2302/2312 22020G230KT SHRA SCT020CB=

ENTC (12:50 UTC)

Tromsø flygplats

METAR

SHRA

ENTC 221250Z 22017KT 9999 VCSH FEW017 BKN041 02/M03 Q1010 TEMPO 4000 -SHSN VV012 RMK WIND 2600FT 21025KT=

TAF

SHSN

ENTC 221100Z 2212/2312 22012KT 9999 SCT012 BKN025 TEMPO 2212/2217 1500 SHSN VV008 TEMPO 2220/2224 22020G30KT TEMPO 2218/2306 18022KT 4000 RA FEW006 BKN008=

ENAT (12:50 UTC)

Alta flygplats

METAR

ENAT 221250Z 21007KT 170V250 9999 FEW030 04/M07 Q1010 RMK WIND 700FT 22016KT=

TAF

SHSN

ENAT 221100Z 2212/2221 23012KT 9999 FEW020 BKN025 PROB40 TEMPO 2212/2215 1500 SHSN VV008=

ENNA (12:50 UTC)

Lakselv flygplats

METAR

ENNA 221250Z 22013KT CAVOK 03/M06 Q1010 RMK WIND 1800FT 26036KT=

TAF

SN

ENNA 221100Z 2212/2312 20012KT 9999 FEW030 TEMPO 2212/2219 22020G30KT TEMPO 2219/2306 20030G40KT TEMPO 2219/2303 1000 SN BLSN VV008=

ENHF (12:50 UTC)

Hammerfest flygplats

METAR

SHRA

ENHF 221250Z 24022KT 9999 VCSH FEW009 SCT015 BKN021 00/M04 Q1006 RMK WIND 1254FT 25029KT=

TAF

SHSN

ENHF 221100Z 2212/2221 25025KT 9999 -SHSN DRSN FEW015 BKN025 TEMPO 2212/2215 26030G40KT 0400 +SHSN BLSN VV003 BECMG 2214/2216 24015KT=

ENKR (12:50 UTC)

Kirkenes Airport, Høybuktmoen

METAR

ENKR 221250Z 24012KT CAVOK 00/M06 Q1011 RMK WIND 731FT 24023KT=

TAF

ENKR 221100Z 2212/2221 25018KT 9999 FEW030=

ENLK (12:50 UTC)

Leknes Airport

METAR

SHRA

ENLK 221250Z 17010KT 9999 7000SW SHRA FEW015 BKN020 03/00 Q1009=

TAF

Ingen TAF hittades.

ENNO (12:50 UTC)

Notodden Airport, Tuven

METAR

ENNO 221250Z 32003KT 250V050 CAVOK 06/M02 Q1025=

TAF

ENNO 221100Z 2212/2218 16008KT 9999 FEW040 BKN060 PROB40 2216/2218 BKN012=

ENST (12:50 UTC)

Sandnessjøen Airport, Stokka

METAR

RA

ENST 221250Z 15019G32KT 100V210 9999 -RA FEW015 BKN030 06/M01 Q1010 RMK WIND 300FT 14027G47KT TURB WRNG - SEE IPPC=

TAF

Ingen TAF hittades.

ENSB (12:50 UTC)

Svalbard Airport, Longyear

METAR

SN

ENSB 221250Z 25010KT 2000 -SN VV009 M03/M05 Q0979 RMK WIND 1400FT 27007KT=

TAF

SHSN

ENSB 221100Z 2212/2312 24009KT 9999 SCT010 BKN020 TEMPO 2212/2216 2000 SHSN VV004 BECMG 2221/2224 12010KT=

ENSK (12:20 UTC)

Stokmarknes Airport, Skagen

METAR

SHRA

ENSK 221220Z 18015KT 9999 SHRA VV014 02/01 Q1010=

TAF

Ingen TAF hittades.

ENSR (12:50 UTC)

Sørkjosen Airport

METAR

ENSR 221250Z VRB04KT 9999 FEW035 SCT060 03/M06 Q1009 RMK WIND 1119FT 22017KT=

TAF

Ingen TAF hittades.

ENNM (12:50 UTC)

Namsos Airport, Høknesøra

METAR

RA

ENNM 221250Z 10014G31KT 080V210 9999 -RA SCT020 BKN040 07/M03 Q1012=

TAF

Ingen TAF hittades.